Time;durP1;ratioP1;P1;durP2;ratioP2;P2;SDS_P1;SDS_P2;PMS_P1;PMS_P2;Temp;Humidity;BMP_temperature;BMP_pressure;BME280_temperature;BME280_humidity;BME280_pressure;Samples;Min_cycle;Max_cycle;Signal;HPM_P1;HPM_P2
2022/11/29 00:02:15;;;;;;;243.35;49.80;;;;;;;5.06;100.00;101390.16;5299132;28;20035;-80
2022/11/29 00:04:46;;;;;;;180.60;46.40;;;;;;;4.91;100.00;101378.72;5299941;28;20055;-80
2022/11/29 00:07:17;;;;;;;99.18;39.45;;;;;;;5.04;100.00;101398.19;5322701;27;20488;-80
2022/11/29 00:09:48;;;;;;;125.43;39.42;;;;;;;4.88;100.00;101387.69;5318364;28;20072;-80
2022/11/29 00:12:22;;;;;;;136.15;40.17;;;;;;;4.82;100.00;101395.13;5318286;27;20052;-80
2022/11/29 00:14:53;;;;;;;158.05;39.95;;;;;;;4.69;100.00;101381.78;5319618;28;20023;-80
2022/11/29 00:17:25;;;;;;;83.40;34.85;;;;;;;4.77;100.00;101382.19;5319360;27;20069;-80
2022/11/29 00:19:56;;;;;;;129.60;40.20;;;;;;;4.88;100.00;101400.91;5318325;27;20095;-80
2022/11/29 00:22:28;;;;;;;134.68;41.63;;;;;;;4.89;100.00;101404.38;5319273;28;20059;-80
2022/11/29 00:24:59;;;;;;;93.30;35.60;;;;;;;4.84;100.00;101399.38;5320658;28;20115;-80
2022/11/29 00:27:31;;;;;;;83.47;39.40;;;;;;;4.93;100.00;101405.91;5303633;28;20080;-80
2022/11/29 00:30:03;;;;;;;91.47;40.85;;;;;;;4.99;100.00;101409.97;5322121;27;20039;-80
2022/11/29 00:32:34;;;;;;;97.25;40.53;;;;;;;4.99;100.00;101402.03;5298576;28;20062;-80
2022/11/29 00:35:06;;;;;;;87.68;40.03;;;;;;;5.08;100.00;101412.94;5298524;28;20082;-80
2022/11/29 00:37:37;;;;;;;113.78;43.95;;;;;;;5.11;100.00;101404.78;5320179;28;20400;-80
2022/11/29 00:40:09;;;;;;;138.13;47.90;;;;;;;5.22;100.00;101420.00;5322274;28;20039;-80
2022/11/29 00:42:40;;;;;;;127.28;42.35;;;;;;;5.12;100.00;101413.59;5320842;28;20090;-80
2022/11/29 00:45:11;;;;;;;98.00;41.88;;;;;;;5.21;100.00;101412.19;5321646;28;20034;-80
2022/11/29 00:47:43;;;;;;;118.72;45.40;;;;;;;5.25;100.00;101403.94;5321163;27;20034;-80
2022/11/29 00:50:14;;;;;;;130.27;45.97;;;;;;;5.28;100.00;101408.22;5320611;27;20097;-80
2022/11/29 00:52:45;;;;;;;111.68;43.78;;;;;;;5.26;100.00;101405.66;5298797;28;20016;-80
2022/11/29 00:55:17;;;;;;;102.43;44.25;;;;;;;5.22;100.00;101398.84;5322353;28;20031;-80
2022/11/29 00:57:48;;;;;;;118.60;44.17;;;;;;;5.26;100.00;101407.47;5316909;28;20439;-80
2022/11/29 01:00:20;;;;;;;127.15;43.63;;;;;;;5.30;100.00;101408.97;5319618;28;20375;-80
2022/11/29 01:02:51;;;;;;;112.63;37.63;;;;;;;5.25;100.00;101406.59;5296563;28;20024;-80
2022/11/29 01:05:22;;;;;;;145.00;45.72;;;;;;;5.19;100.00;101398.19;5296363;27;20016;-80
2022/11/29 01:07:53;;;;;;;140.85;45.15;;;;;;;5.25;100.00;101411.03;5321243;27;20077;-80
2022/11/29 01:10:26;;;;;;;304.02;51.50;;;;;;;5.15;100.00;101407.25;5321720;28;20105;-80
2022/11/29 01:12:57;;;;;;;137.30;40.25;;;;;;;4.98;100.00;101401.22;5321709;28;20122;-80
2022/11/29 01:15:29;;;;;;;103.85;39.95;;;;;;;5.11;100.00;101406.59;5319100;28;20036;-80
2022/11/29 01:18:00;;;;;;;150.65;42.85;;;;;;;5.08;100.00;101404.13;5320807;27;20121;-80
2022/11/29 01:20:31;;;;;;;133.07;44.30;;;;;;;5.06;100.00;101406.03;5319731;28;20032;-80
2022/11/29 01:23:03;;;;;;;184.65;42.50;;;;;;;4.93;100.00;101417.34;5321438;28;20392;-80
2022/11/29 01:25:34;;;;;;;264.27;45.92;;;;;;;4.81;100.00;101419.88;5320304;28;20036;-80
2022/11/29 01:28:06;;;;;;;282.67;45.40;;;;;;;4.74;100.00;101422.00;5319377;28;20101;-80
2022/11/29 01:30:37;;;;;;;282.23;49.10;;;;;;;4.91;100.00;101413.94;5318942;28;20028;-80
2022/11/29 01:33:08;;;;;;;127.90;41.38;;;;;;;4.91;100.00;101411.28;5303236;28;20464;-80
2022/11/29 01:35:48;;;;;;;104.05;41.17;;;;;;;4.96;100.00;101415.44;5320920;28;20471;-80
2022/11/29 01:38:21;;;;;;;140.02;38.95;;;;;;;4.89;100.00;101412.31;5317152;27;20586;-80
2022/11/29 01:40:57;;;;;;;125.82;41.50;;;;;;;4.98;100.00;101409.13;5318405;28;20024;-80
2022/11/29 01:43:29;;;;;;;103.50;40.47;;;;;;;5.01;100.00;101431.88;5320662;28;20035;-80
2022/11/29 01:46:01;;;;;;;230.85;45.88;;;;;;;4.82;100.00;101424.19;5321094;28;20118;-80
2022/11/29 01:48:32;;;;;;;98.80;35.60;;;;;;;5.08;100.00;101434.09;5320316;28;20190;-80
2022/11/29 01:51:04;;;;;;;100.85;38.13;;;;;;;5.11;100.00;101427.75;5300270;28;20029;-80
2022/11/29 01:53:35;;;;;;;161.20;40.70;;;;;;;5.03;100.00;101440.56;5320588;28;20468;-80
2022/11/29 01:56:07;;;;;;;229.48;44.55;;;;;;;4.98;100.00;101450.56;5299420;28;20459;-80
2022/11/29 01:58:40;;;;;;;108.60;36.67;;;;;;;5.14;100.00;101446.09;5320494;27;20039;-79
2022/11/29 02:01:12;;;;;;;145.25;37.40;;;;;;;5.22;100.00;101449.09;5320298;27;20406;-80
2022/11/29 02:03:44;;;;;;;196.98;45.75;;;;;;;5.44;100.00;101464.53;5324051;28;20043;-79
2022/11/29 02:06:15;;;;;;;273.42;53.95;;;;;;;5.32;100.00;101465.28;5322038;27;20171;-80
2022/11/29 02:08:46;;;;;;;161.38;40.38;;;;;;;5.55;100.00;101460.38;5306191;28;20031;-79
2022/11/29 02:11:32;;;;;;;204.02;48.80;;;;;;;5.68;100.00;101474.56;5324423;28;20060;-80
2022/11/29 02:14:37;;;;;;;157.20;46.03;;;;;;;5.66;100.00;101479.06;5321804;28;20057;-80
2022/11/29 02:17:27;;;;;;;166.68;43.03;;;;;;;5.81;100.00;101475.47;5321486;27;20606;-79
2022/11/29 02:20:20;;;;;;;181.57;45.40;;;;;;;5.76;100.00;101474.91;5320049;28;20642;-79
2022/11/29 02:23:27;;;;;;;145.68;41.00;;;;;;;5.82;100.00;101481.59;5322222;28;20099;-80
2022/11/29 02:26:35;;;;;;;179.55;43.30;;;;;;;5.79;100.00;101474.72;5319160;28;20082;-80
2022/11/29 02:29:31;;;;;;;134.55;36.15;;;;;;;5.82;100.00;101478.97;5319808;27;20023;-79
2022/11/29 02:32:21;;;;;;;196.50;45.42;;;;;;;5.74;100.00;101475.97;5319654;28;20169;-79
2022/11/29 02:35:03;;;;;;;171.52;43.75;;;;;;;5.69;100.00;101470.94;5322559;28;20024;-80
2022/11/29 02:37:53;;;;;;;280.17;54.03;;;;;;;5.63;100.00;101482.78;5305215;28;20392;-80
2022/11/29 02:41:09;;;;;;;226.13;50.17;;;;;;;5.54;100.00;101456.00;5298813;28;20024;-79
2022/11/29 02:44:21;;;;;;;165.32;44.88;;;;;;;5.55;100.00;101466.50;5322333;28;20044;-80
2022/11/29 02:47:05;;;;;;;177.68;45.65;;;;;;;5.54;100.00;101474.53;5305440;28;20028;-80
2022/11/29 02:49:55;;;;;;;249.23;50.58;;;;;;;5.46;100.00;101473.22;5320469;28;20449;-79
2022/11/29 02:52:50;;;;;;;143.65;38.65;;;;;;;5.56;100.00;101470.00;5320227;28;20032;-80
2022/11/29 02:55:47;;;;;;;195.85;48.83;;;;;;;5.44;100.00;101474.25;5321670;28;20028;-80
2022/11/29 02:58:25;;;;;;;165.18;42.47;;;;;;;5.49;100.00;101483.63;5323300;27;20042;-80
2022/11/29 03:01:18;;;;;;;173.43;49.75;;;;;;;5.45;100.00;101483.88;5323386;28;20107;-80
2022/11/29 03:04:30;;;;;;;255.18;51.67;;;;;;;5.40;100.00;101486.84;5320279;27;20025;-80
2022/11/29 03:07:10;;;;;;;226.55;49.58;;;;;;;5.13;100.00;101488.47;5321437;27;20052;-79
2022/11/29 03:10:10;;;;;;;270.52;51.53;;;;;;;5.10;100.00;101490.38;5319575;28;20028;-80
2022/11/29 03:12:46;;;;;;;122.53;37.28;;;;;;;5.19;100.00;101491.63;5289838;28;20062;-80
2022/11/29 03:15:36;;;;;;;237.07;48.95;;;;;;;4.92;100.00;101500.22;5300166;28;20024;-80
2022/11/29 03:18:26;;;;;;;197.07;47.17;;;;;;;4.91;100.00;101498.53;5323167;28;20032;-80
2022/11/29 03:21:09;;;;;;;120.97;40.10;;;;;;;4.84;100.00;101506.88;5321792;28;20383;-80
2022/11/29 03:24:02;;;;;;;151.93;41.53;;;;;;;4.75;100.00;101505.63;5325186;27;20031;-80
2022/11/29 03:26:40;;;;;;;129.00;40.03;;;;;;;4.89;100.00;101511.00;5322144;28;20038;-80
2022/11/29 03:29:52;;;;;;;184.55;45.50;;;;;;;4.91;100.00;101511.75;5320811;28;20420;-80
2022/11/29 03:32:37;;;;;;;186.05;44.25;;;;;;;4.83;100.00;101513.97;5279448;28;20055;-80
2022/11/29 03:35:16;;;;;;;145.30;40.70;;;;;;;4.90;100.00;101515.31;5316223;28;20032;-80
2022/11/29 03:38:08;;;;;;;142.80;43.35;;;;;;;4.83;100.00;101521.91;5318575;28;20031;-80
2022/11/29 03:40:48;;;;;;;128.32;40.08;;;;;;;4.84;100.00;101518.34;5316136;28;20051;-79
2022/11/29 03:43:26;;;;;;;197.75;47.17;;;;;;;4.76;100.00;101517.91;5318599;28;20084;-80
2022/11/29 03:46:03;;;;;;;173.88;46.05;;;;;;;4.72;100.00;101524.34;5317808;28;20024;-80
2022/11/29 03:49:15;;;;;;;198.23;46.72;;;;;;;4.80;100.00;101526.53;5319723;28;20021;-79
2022/11/29 03:51:59;;;;;;;191.10;43.83;;;;;;;4.73;100.00;101526.03;5305027;28;20093;-80
2022/11/29 03:55:00;;;;;;;187.57;42.80;;;;;;;4.81;100.00;101533.53;5316416;27;20139;-80
2022/11/29 03:57:54;;;;;;;175.15;43.58;;;;;;;4.77;100.00;101539.91;5318812;28;20133;-80
2022/11/29 04:00:41;;;;;;;158.65;42.95;;;;;;;4.72;100.00;101535.75;5298779;28;20080;-79
2022/11/29 04:03:34;;;;;;;180.98;45.60;;;;;;;4.74;100.00;101538.31;5299578;28;20496;-80
2022/11/29 04:07:00;;;;;;;205.25;47.63;;;;;;;4.78;100.00;101549.56;5318335;27;20072;-80
2022/11/29 04:10:10;;;;;;;220.77;49.20;;;;;;;4.76;100.00;101546.16;5300341;28;20064;-80
2022/11/29 04:13:09;;;;;;;197.40;45.25;;;;;;;4.76;100.00;101557.56;5278566;28;20179;-79
2022/11/29 04:16:18;;;;;;;193.48;46.63;;;;;;;4.77;100.00;101558.41;5316582;28;20103;-80
2022/11/29 04:19:23;;;;;;;287.13;52.33;;;;;;;4.74;100.00;101555.00;5297373;28;20028;-80
2022/11/29 04:22:22;;;;;;;152.13;42.28;;;;;;;4.72;100.00;101548.97;5317689;28;20084;-80
2022/11/29 04:25:15;;;;;;;141.63;41.20;;;;;;;4.79;100.00;101560.03;5317017;27;20139;-80
2022/11/29 04:27:59;;;;;;;141.43;41.15;;;;;;;4.74;100.00;101562.94;5319460;28;20387;-80
2022/11/29 04:30:48;;;;;;;142.15;41.33;;;;;;;4.68;100.00;101565.06;5317148;27;20041;-81
2022/11/29 04:33:38;;;;;;;216.20;46.10;;;;;;;4.60;100.00;101564.66;5315609;27;20476;-80
2022/11/29 04:36:25;;;;;;;158.52;41.10;;;;;;;4.48;100.00;101553.00;5317688;28;20028;-80
2022/11/29 04:39:25;;;;;;;135.93;39.33;;;;;;;4.55;100.00;101563.13;5317346;28;20020;-80
2022/11/29 04:42:41;;;;;;;167.27;43.33;;;;;;;4.49;100.00;101560.00;5301463;28;20020;-80
2022/11/29 04:45:34;;;;;;;155.75;42.28;;;;;;;4.45;100.00;101566.34;5317250;28;20031;-80
2022/11/29 04:48:40;;;;;;;114.32;36.55;;;;;;;4.53;100.00;101566.78;5314346;28;20028;-80
2022/11/29 04:51:11;;;;;;;132.25;41.45;;;;;;;4.44;100.00;101569.97;5317675;28;20046;-80
2022/11/29 04:54:13;;;;;;;105.40;38.17;;;;;;;4.51;100.00;101566.88;5318588;28;20480;-80
2022/11/29 04:56:49;;;;;;;108.13;38.35;;;;;;;4.52;100.00;101567.72;5316849;28;20452;-80
2022/11/29 04:59:42;;;;;;;128.63;38.78;;;;;;;4.55;100.00;101571.03;5314090;28;20150;-80
2022/11/29 05:02:23;;;;;;;248.57;48.17;;;;;;;4.40;100.00;101574.56;5319220;28;20402;-80
2022/11/29 05:05:04;;;;;;;140.65;42.65;;;;;;;4.35;100.00;101576.59;5316800;28;20046;-80
2022/11/29 05:07:58;;;;;;;96.32;35.63;;;;;;;4.42;100.00;101582.38;5312002;27;20540;-80
2022/11/29 05:10:46;;;;;;;96.25;36.15;;;;;;;4.45;100.00;101595.41;5294810;28;20052;-80
2022/11/29 05:13:48;;;;;;;105.82;36.60;;;;;;;4.46;100.00;101592.69;5315440;28;20412;-80
2022/11/29 05:16:29;;;;;;;226.55;47.13;;;;;;;4.27;100.00;101599.94;5296242;28;20074;-80
2022/11/29 05:19:09;;;;;;;197.93;43.90;;;;;;;4.13;100.00;101583.03;5318446;27;20029;-80
2022/11/29 05:21:49;;;;;;;134.55;39.42;;;;;;;4.22;100.00;101602.81;5316960;28;20036;-80
2022/11/29 05:25:02;;;;;;;170.60;42.38;;;;;;;4.31;100.00;101610.25;5299410;28;20501;-80
2022/11/29 05:27:40;;;;;;;142.40;40.50;;;;;;;4.27;100.00;101623.69;5277369;28;20119;-80
2022/11/29 05:30:19;;;;;;;98.63;36.72;;;;;;;4.21;100.00;101616.97;5316663;27;20123;-80
2022/11/29 05:33:10;;;;;;;103.70;35.75;;;;;;;4.29;100.00;101622.66;5318220;28;20024;-80
2022/11/29 05:36:00;;;;;;;176.45;42.58;;;;;;;4.23;100.00;101624.81;5313805;28;20024;-80
2022/11/29 05:38:43;;;;;;;120.65;38.00;;;;;;;4.27;100.00;101634.25;5320477;27;20036;-80
2022/11/29 05:41:21;;;;;;;87.95;31.83;;;;;;;4.37;100.00;101634.63;5329588;27;20032;-80
2022/11/29 05:44:18;;;;;;;125.25;41.08;;;;;;;4.35;100.00;101632.91;5317864;28;20032;-78
2022/11/29 05:47:00;;;;;;;114.43;36.80;;;;;;;4.39;100.00;101633.59;5318470;28;20028;-81
2022/11/29 05:49:31;;;;;;;141.55;40.72;;;;;;;4.37;100.00;101643.41;5316748;27;20396;-80
2022/11/29 05:52:23;;;;;;;181.57;43.92;;;;;;;4.40;100.00;101645.00;5321896;28;20519;-80
2022/11/29 05:55:12;;;;;;;122.65;33.35;;;;;;;4.56;100.00;101645.91;5317360;28;20024;-80
2022/11/29 05:57:50;;;;;;;204.68;45.90;;;;;;;4.49;100.00;101650.66;5320014;27;20032;-80
2022/11/29 06:00:23;;;;;;;216.55;46.35;;;;;;;4.48;100.00;101651.59;5322416;27;20024;-80
2022/11/29 06:03:17;;;;;;;149.93;40.92;;;;;;;4.56;100.00;101656.47;5322831;28;20024;-80
2022/11/29 06:06:21;;;;;;;183.70;43.80;;;;;;;4.58;100.00;101645.81;5316071;28;20074;-80
2022/11/29 06:09:02;;;;;;;162.23;39.83;;;;;;;4.61;100.00;101657.06;5261593;27;20036;-79
2022/11/29 06:11:40;;;;;;;210.73;43.90;;;;;;;4.56;100.00;101661.75;5297143;28;20036;-79
2022/11/29 06:14:23;;;;;;;190.38;45.78;;;;;;;4.58;100.00;101672.25;5317243;28;20020;-80
2022/11/29 06:17:00;;;;;;;211.93;45.30;;;;;;;4.52;100.00;101679.56;5317962;28;20076;-80
2022/11/29 06:19:58;;;;;;;145.55;39.67;;;;;;;4.57;100.00;101674.00;5324519;28;20035;-80
2022/11/29 06:22:38;;;;;;;210.30;46.40;;;;;;;4.63;100.00;101684.25;5322978;28;20111;-80
2022/11/29 06:25:22;;;;;;;203.85;44.38;;;;;;;4.59;100.00;101690.63;5323926;28;20043;-80
2022/11/29 06:28:17;;;;;;;183.05;43.22;;;;;;;4.68;100.00;101692.78;5319865;28;20024;-79
2022/11/29 06:31:19;;;;;;;130.38;38.40;;;;;;;4.70;100.00;101688.28;5324286;27;20039;-80
2022/11/29 06:33:55;;;;;;;201.05;42.95;;;;;;;4.55;100.00;101679.38;5303567;28;20036;-80
2022/11/29 06:36:49;;;;;;;193.90;44.85;;;;;;;4.72;100.00;101696.97;5320602;28;20145;-80
2022/11/29 06:39:20;;;;;;;154.02;38.83;;;;;;;4.83;100.00;101708.75;5319606;27;20534;-80
2022/11/29 06:41:52;;;;;;;143.48;42.33;;;;;;;4.68;100.00;101703.38;5320095;27;20039;-80
2022/11/29 06:44:24;;;;;;;102.60;39.05;;;;;;;4.75;100.00;101709.16;5321587;27;20082;-80
2022/11/29 06:47:05;;;;;;;176.35;46.60;;;;;;;4.80;100.00;101717.69;5302301;28;20042;-80
2022/11/29 06:49:50;;;;;;;138.52;39.95;;;;;;;4.91;100.00;101717.13;5321306;27;20120;-80
2022/11/29 06:52:39;;;;;;;219.60;47.72;;;;;;;4.87;100.00;101723.50;5318301;28;20027;-81
2022/11/29 06:55:20;;;;;;;119.03;37.50;;;;;;;4.93;100.00;101718.72;5323825;27;20036;-80
2022/11/29 06:58:18;;;;;;;134.60;40.97;;;;;;;4.97;100.00;101722.06;5299419;28;20031;-81
2022/11/29 07:00:54;;;;;;;118.07;40.08;;;;;;;4.99;100.00;101722.81;5323190;28;20028;-80
2022/11/29 07:03:32;;;;;;;;;;;;;;;5.16;100.00;101734.28;5324627;28;20047;-81
2022/11/29 07:06:17;;;;;;;103.10;37.28;;;;;;;5.02;100.00;101713.88;5326012;27;19926;-80
2022/11/29 07:09:02;;;;;;;119.45;40.85;;;;;;;4.88;100.00;101702.25;5325430;28;20587;-81
2022/11/29 07:11:33;;;;;;;108.50;41.75;;;;;;;5.01;100.00;101731.50;5308591;28;20067;-80
2022/11/29 07:14:05;;;;;;;86.40;37.00;;;;;;;4.97;100.00;101718.56;5341844;27;20016;-80
2022/11/29 07:17:04;;;;;;;97.97;39.70;;;;;;;5.14;100.00;101744.94;5323729;27;20039;-80
2022/11/29 07:19:59;;;;;;;131.80;42.65;;;;;;;4.85;100.00;101714.81;5287243;28;20044;-80
2022/11/29 07:23:00;;;;;;;134.35;42.13;;;;;;;5.09;100.00;101746.97;5313903;27;20067;-81
2022/11/29 07:26:20;;;;;;;168.40;45.42;;;;;;;5.13;100.00;101760.88;5326784;28;20415;-81
2022/11/29 07:29:07;;;;;;;155.82;43.33;;;;;;;5.04;100.00;101762.25;5320333;28;20042;-80
2022/11/29 07:31:41;;;;;;;127.78;41.13;;;;;;;5.06;100.00;101766.50;5307432;28;20127;-80
2022/11/29 07:34:43;;;;;;;173.07;42.83;;;;;;;5.07;100.00;101765.56;5326081;28;20028;-80
2022/11/29 07:37:27;;;;;;;206.68;45.58;;;;;;;5.04;100.00;101764.88;5324344;28;20111;-80
2022/11/29 07:40:25;;;;;;;215.35;46.72;;;;;;;5.09;100.00;101773.44;5326308;28;20020;-80
2022/11/29 07:43:41;;;;;;;166.98;42.85;;;;;;;5.12;100.00;101778.56;5326341;28;20051;-80
2022/11/29 07:46:13;;;;;;;142.50;40.72;;;;;;;5.11;100.00;101779.47;5291085;28;20085;-80
2022/11/29 07:48:44;;;;;;;89.10;36.30;;;;;;;5.23;100.00;101785.88;5326513;28;20020;-80
2022/11/29 07:51:16;;;;;;;96.53;38.83;;;;;;;5.14;100.00;101781.09;5298421;28;20029;-80
2022/11/29 07:53:47;;;;;;;96.72;39.22;;;;;;;5.13;100.00;101768.81;5304824;28;20032;-80
2022/11/29 07:56:19;;;;;;;102.30;38.72;;;;;;;5.26;100.00;101781.28;5286423;28;20017;-80
2022/11/29 07:58:50;;;;;;;143.70;43.38;;;;;;;5.20;100.00;101789.53;5304608;28;20043;-81
2022/11/29 08:01:21;;;;;;;105.57;39.30;;;;;;;5.28;100.00;101773.25;5318793;28;20077;-80
2022/11/29 08:03:53;;;;;;;120.47;41.55;;;;;;;5.26;100.00;101783.09;5326074;28;20023;-80
2022/11/29 08:06:25;;;;;;;100.53;39.60;;;;;;;5.36;100.00;101788.69;5324441;27;20119;-80
2022/11/29 08:08:57;;;;;;;118.15;40.85;;;;;;;5.40;100.00;101788.47;5304835;28;20441;-80
2022/11/29 08:11:29;;;;;;;113.40;40.72;;;;;;;5.37;100.00;101780.69;5303706;28;20033;-80
2022/11/29 08:14:04;;;;;;;172.68;46.72;;;;;;;5.37;100.00;101796.56;5304631;28;20028;-80
2022/11/29 08:16:35;;;;;;;211.80;47.67;;;;;;;5.43;100.00;101792.72;5321843;28;20376;-79
2022/11/29 08:19:06;;;;;;;200.50;47.30;;;;;;;5.40;100.00;101790.22;5326275;28;20028;-80
2022/11/29 08:21:38;;;;;;;125.50;40.60;;;;;;;5.48;100.00;101796.78;5326033;28;20056;-80
2022/11/29 08:24:09;;;;;;;169.00;47.60;;;;;;;5.39;100.00;101802.59;5307259;28;20384;-81
2022/11/29 08:26:41;;;;;;;168.13;46.88;;;;;;;5.34;100.00;101785.28;5325895;28;20506;-80
2022/11/29 08:29:12;;;;;;;142.65;43.65;;;;;;;5.42;100.00;101798.97;5325388;28;20024;-80
2022/11/29 08:31:44;;;;;;;208.75;48.85;;;;;;;5.40;100.00;101792.88;5325755;27;20431;-80
2022/11/29 08:34:15;;;;;;;157.55;46.95;;;;;;;5.54;100.00;101802.69;5325615;28;20419;-80
2022/11/29 08:36:47;;;;;;;153.23;46.03;;;;;;;5.56;100.00;101801.69;5325750;28;20020;-80
2022/11/29 08:39:19;;;;;;;172.13;48.15;;;;;;;5.51;100.00;101797.59;5325664;28;21110;-80
2022/11/29 08:41:50;;;;;;;144.40;41.03;;;;;;;5.68;100.00;101814.22;5324742;28;20417;-81
2022/11/29 08:44:22;;;;;;;190.90;48.30;;;;;;;5.45;100.00;101783.75;5302695;28;20177;-81
2022/11/29 08:47:41;;;;;;;143.30;43.17;;;;;;;5.58;100.00;101814.84;5304302;28;20074;-81
2022/11/29 08:50:00;;;;;;;176.30;48.47;;;;;;;5.47;100.00;101816.28;5296090;28;20047;-81
2022/11/29 08:55:31;;;;;;;263.50;48.45;;;;;;;5.57;100.00;101824.53;5304269;28;20037;-81
2022/11/29 08:58:05;;;;;;;210.05;45.40;;;;;;;5.67;100.00;101830.19;5322628;28;20070;-81
2022/11/29 09:00:37;;;;;;;273.70;53.75;;;;;;;5.64;100.00;101831.19;5306718;28;20032;-81
2022/11/29 09:06:14;;;;;;;211.18;48.03;;;;;;;5.72;100.00;101825.47;5325270;27;20470;-81
2022/11/29 09:08:45;;;;;;;266.75;48.22;;;;;;;5.76;100.00;101815.56;5306781;28;20024;-81
2022/11/29 09:11:20;;;;;;;298.55;51.67;;;;;;;5.88;100.00;101833.41;5307686;28;20040;-81
2022/11/29 09:13:57;;;;;;;173.85;47.95;;;;;;;5.93;100.00;101826.06;5331948;28;20100;-82
2022/11/29 09:16:32;;;;;;;396.00;56.72;;;;;;;6.06;100.00;101847.41;5311780;28;20472;-81
2022/11/29 09:19:04;;;;;;;234.35;48.55;;;;;;;5.93;100.00;101831.34;5310525;28;20017;-81
2022/11/29 09:21:35;;;;;;;428.08;58.30;;;;;;;5.91;100.00;101817.34;5312882;28;20024;-80
2022/11/29 09:24:08;;;;;;;415.58;57.80;;;;;;;6.14;100.00;101845.19;5331777;28;20028;-80
2022/11/29 09:26:40;;;;;;;333.85;53.45;;;;;;;6.17;100.00;101838.84;5331749;28;20476;-80
2022/11/29 09:29:13;;;;;;;505.48;63.60;;;;;;;6.29;100.00;101856.66;5332009;28;20073;-80
2022/11/29 09:31:44;;;;;;;514.67;62.63;;;;;;;6.31;100.00;101856.56;5331896;28;20024;-80
2022/11/29 09:34:17;;;;;;;403.30;58.58;;;;;;;6.22;100.00;101848.25;5332373;28;20431;-80
2022/11/29 09:36:48;;;;;;;292.83;49.92;;;;;;;6.28;100.00;101857.63;5330461;28;20062;-80
2022/11/29 09:39:20;;;;;;;528.78;64.13;;;;;;;6.41;100.00;101876.28;5331862;28;20444;-80
2022/11/29 09:42:03;;;;;;;452.15;56.85;;;;;;;6.55;100.00;101878.13;5331596;28;20061;-80
2022/11/29 09:45:03;;;;;;;412.20;56.53;;;;;;;6.61;100.00;101878.63;5331619;28;20024;-80
2022/11/29 09:48:16;;;;;;;494.65;61.05;;;;;;;6.63;100.00;101890.00;5330640;28;20024;-80
2022/11/29 09:51:00;;;;;;;213.10;42.33;;;;;;;6.81;100.00;101892.50;5282460;28;20044;-80
2022/11/29 09:53:45;;;;;;;554.78;60.60;;;;;;;6.77;100.00;101886.53;5331726;28;20024;-80
2022/11/29 09:56:32;;;;;;;442.30;52.58;;;;;;;6.86;100.00;101893.06;5333395;28;20023;-79
2022/11/29 09:59:11;;;;;;;346.45;51.03;;;;;;;6.94;100.00;101896.13;5331329;28;20059;-79
2022/11/29 10:01:52;;;;;;;242.65;38.05;;;;;;;6.92;100.00;101871.47;5331133;28;20077;-80
2022/11/29 10:04:29;;;;;;;447.33;50.42;;;;;;;7.05;100.00;101897.25;5329352;28;20028;-79
2022/11/29 10:07:26;;;;;;;633.00;64.40;;;;;;;7.17;100.00;101900.00;5321390;27;20044;-80
2022/11/29 10:10:05;;;;;;;400.48;43.47;;;;;;;7.08;100.00;101882.03;5310020;28;20055;-80
2022/11/29 10:12:45;;;;;;;530.90;53.88;;;;;;;7.17;100.00;101897.38;5308383;28;20028;-79
2022/11/29 10:15:26;;;;;;;416.98;45.72;;;;;;;7.22;100.00;101891.75;5309853;28;20065;-79
2022/11/29 10:18:02;;;;;;;418.35;45.38;;;;;;;7.15;100.00;101866.53;5319396;28;20070;-80
2022/11/29 10:20:36;;;;;;;;;;;;;;;7.57;100.00;101888.69;5331784;28;20023;-80
2022/11/29 10:23:33;;;;;;;263.20;36.65;;;;;;;7.53;100.00;101881.88;5310333;28;19919;-80
2022/11/29 10:26:07;;;;;;;208.98;32.30;;;;;;;7.24;100.00;101875.75;5327575;28;20058;-80
2022/11/29 10:28:43;;;;;;;464.65;44.03;;;;;;;7.33;100.00;101880.50;5326770;28;20376;-80
2022/11/29 10:31:26;;;;;;;253.88;29.60;;;;;;;7.19;100.00;101873.38;5326901;28;20028;-80
2022/11/29 10:34:01;;;;;;;388.75;33.97;;;;;;;7.23;100.00;101887.31;5326641;28;20126;-80
2022/11/29 10:36:39;;;;;;;433.73;36.90;;;;;;;7.30;100.00;101883.34;5306163;28;20021;-79
2022/11/29 10:39:43;;;;;;;418.73;38.95;;;;;;;7.39;100.00;101886.25;5306222;28;20025;-79
2022/11/29 10:45:37;;;;;;;343.05;36.08;;;;;;;7.35;100.00;101887.41;5305543;28;20029;-79
2022/11/29 10:48:14;;;;;;;323.98;34.50;;;;;;;7.17;100.00;101894.72;5286983;28;20025;-80
2022/11/29 10:50:47;;;;;;;;;;;;;;;7.27;100.00;101897.63;5306390;28;20033;-80
2022/11/29 10:53:23;;;;;;;143.85;26.42;;;;;;;6.93;100.00;101886.44;5306296;28;19916;-79
2022/11/29 10:56:23;;;;;;;279.63;31.38;;;;;;;6.94;100.00;101888.16;5305322;28;20025;-79
2022/11/29 10:59:03;;;;;;;285.52;31.77;;;;;;;6.94;100.00;101904.06;5321802;28;20388;-80
2022/11/29 11:01:42;;;;;;;170.25;26.25;;;;;;;6.94;100.00;101897.91;5326844;28;20047;-80
2022/11/29 11:04:35;;;;;;;327.05;35.58;;;;;;;6.90;100.00;101894.59;5326780;28;20515;-80
2022/11/29 11:07:18;;;;;;;245.80;31.52;;;;;;;6.83;100.00;101874.69;5333269;27;20071;-80
2022/11/29 11:09:54;;;;;;;376.88;37.70;;;;;;;6.88;100.00;101893.81;5348148;27;20038;-80
2022/11/29 11:12:32;;;;;;;236.75;30.42;;;;;;;6.86;100.00;101884.28;5346656;27;20065;-80
2022/11/29 11:15:15;;;;;;;161.75;29.77;;;;;;;7.04;100.00;101893.75;5347940;27;20449;-80
2022/11/29 11:17:59;;;;;;;158.98;28.95;;;;;;;7.09;100.00;101889.00;5348180;27;20085;-80
2022/11/29 11:20:34;;;;;;;152.60;28.65;;;;;;;7.15;100.00;101891.31;5348312;27;20073;-80
2022/11/29 11:23:28;;;;;;;137.73;30.30;;;;;;;7.34;100.00;101892.81;5348275;27;20031;-80
2022/11/29 11:26:08;;;;;;;190.18;32.30;;;;;;;7.36;100.00;101891.78;5347244;27;20194;-80
2022/11/29 11:28:46;;;;;;;254.93;36.13;;;;;;;7.49;100.00;101891.84;5347984;27;20027;-80
2022/11/29 11:31:27;;;;;;;195.95;32.25;;;;;;;7.54;100.00;101899.53;5347568;27;20031;-80
2022/11/29 11:34:37;;;;;;;296.30;37.38;;;;;;;7.43;100.00;101872.78;5347807;27;20020;-80
2022/11/29 11:37:14;;;;;;;295.52;36.05;;;;;;;7.56;100.00;101895.81;5345177;27;20042;-80
2022/11/29 11:39:49;;;;;;;184.07;32.75;;;;;;;7.45;100.00;101897.44;5345657;27;20027;-80
2022/11/29 11:42:38;;;;;;;189.13;32.83;;;;;;;7.48;100.00;101906.06;5347934;27;20426;-80
2022/11/29 11:45:09;;;;;;;124.63;31.92;;;;;;;7.46;100.00;101913.25;5346029;27;20035;-80
2022/11/29 11:47:43;;;;;;;233.93;36.15;;;;;;;7.46;100.00;101910.59;5347869;27;20023;-80
2022/11/29 11:50:29;;;;;;;224.75;36.33;;;;;;;7.46;100.00;101904.47;5346903;27;20476;-80
2022/11/29 11:53:16;;;;;;;122.50;28.65;;;;;;;7.51;100.00;101895.25;5347275;27;20549;-80
2022/11/29 11:56:00;;;;;;;273.27;38.05;;;;;;;7.69;100.00;101910.97;5347379;27;20069;-80
2022/11/29 11:58:37;;;;;;;190.70;34.40;;;;;;;7.82;100.00;101919.88;5347785;27;20092;-80
2022/11/29 12:01:11;;;;;;;;;;;;;;;8.06;100.00;101927.19;5347636;27;20059;-80
2022/11/29 12:04:07;;;;;;;150.75;30.15;;;;;;;7.87;100.00;101928.41;5348026;27;20040;-80
2022/11/29 12:06:41;;;;;;;108.18;28.50;;;;;;;7.73;100.00;101933.72;5334763;27;20048;-80
2022/11/29 12:09:15;;;;;;;171.68;32.28;;;;;;;7.68;100.00;101935.81;5286535;28;20078;-80
2022/11/29 12:12:04;;;;;;;171.10;32.03;;;;;;;7.74;100.00;101938.09;5304998;28;20064;-80
2022/11/29 12:14:50;;;;;;;175.57;32.28;;;;;;;7.66;100.00;101929.75;5304789;28;20039;-80
2022/11/29 12:17:26;;;;;;;181.88;32.80;;;;;;;7.76;100.00;101936.19;5304643;28;20487;-80
2022/11/29 12:20:03;;;;;;;;;;;;;;;7.99;100.00;101940.03;5304922;28;20036;-80
2022/11/29 12:22:41;;;;;;;131.90;31.38;;;;;;;7.71;100.00;101935.63;5322586;28;19923;-80